createdAt,value
2023-01-01T00:02:03.443Z,4.90
2023-01-01T00:05:45.530Z,9.75
2023-01-01T00:09:45.805Z,7.85
2023-01-01T00:13:27.799Z,5.32
2023-01-01T00:17:10.121Z,6.20
2023-01-01T00:20:52.091Z,6.63
2023-01-01T00:24:34.053Z,5.95
2023-01-01T00:28:16.148Z,5.88
2023-01-01T00:31:58.153Z,7.18
2023-01-01T00:35:40.115Z,5.40
2023-01-01T00:39:22.071Z,5.30
2023-01-01T00:43:04.081Z,9.45
2023-01-01T00:46:46.019Z,6.78
2023-01-01T00:50:28.054Z,6.18
2023-01-01T00:54:10.026Z,8.82
2023-01-01T00:57:52.000Z,8.30
2023-01-01T01:01:34.762Z,8.43
2023-01-01T01:05:16.939Z,8.80
2023-01-01T01:08:59.319Z,7.15
2023-01-01T01:12:41.449Z,5.63
2023-01-01T01:16:25.401Z,7.07
2023-01-01T01:20:08.529Z,5.38
2023-01-01T01:23:51.465Z,5.72
2023-01-01T01:27:33.622Z,9.65
2023-01-01T01:31:15.766Z,7.25
2023-01-01T01:34:57.754Z,11.18
2023-01-01T01:38:39.752Z,12.82
2023-01-01T01:42:21.927Z,7.32
2023-01-01T01:46:19.071Z,7.15
2023-01-01T01:53:58.907Z,7.82
2023-01-01T01:57:41.677Z,6.68
2023-01-01T02:01:24.690Z,9.80
2023-01-01T02:05:07.297Z,11.35
2023-01-01T02:08:51.316Z,9.63
2023-01-01T02:12:33.381Z,11.95
2023-01-01T02:16:37.764Z,12.10
2023-01-01T02:20:30.131Z,11.40
2023-01-01T02:24:29.887Z,9.48
2023-01-01T02:28:17.410Z,13.02
2023-01-01T02:32:02.314Z,10.77
2023-01-01T02:35:52.693Z,10.27
2023-01-01T02:39:38.145Z,11.57
2023-01-01T02:43:24.627Z,10.52
2023-01-01T02:47:13.719Z,9.57
2023-01-01T02:51:00.415Z,9.30
2023-01-01T02:54:42.300Z,12.57
2023-01-01T02:58:51.856Z,10.90
2023-01-01T03:02:33.814Z,7.53
2023-01-01T03:06:27.686Z,8.02
2023-01-01T03:10:15.883Z,10.02
2023-01-01T03:14:20.041Z,11.43
2023-01-01T03:18:28.231Z,9.35
2023-01-01T03:22:18.948Z,10.80
2023-01-01T03:26:05.458Z,10.38
2023-01-01T03:29:51.884Z,7.60
2023-01-01T03:33:36.071Z,11.77
2023-01-01T03:37:24.132Z,9.25
2023-01-01T03:41:16.904Z,8.25
2023-01-01T03:45:19.398Z,9.30
2023-01-01T03:49:04.215Z,6.43
2023-01-01T03:52:49.568Z,3.53
2023-01-01T03:56:34.530Z,5.80
2023-01-01T04:00:23.852Z,3.42
2023-01-01T04:04:07.062Z,2.80
2023-01-01T04:11:51.592Z,1.63
2023-01-01T04:15:36.071Z,2.47
2023-01-01T04:19:18.101Z,2.13
2023-01-01T04:23:01.366Z,3.08
2023-01-01T04:26:43.453Z,3.40
2023-01-01T04:30:26.894Z,2.63
2023-01-01T04:34:08.935Z,3.00
2023-01-01T04:37:50.910Z,2.67
2023-01-01T04:41:33.346Z,3.35
2023-01-01T04:45:15.635Z,2.17
2023-01-01T04:48:57.717Z,3.50
2023-01-01T04:52:39.773Z,1.83
2023-01-01T04:56:22.687Z,2.50
2023-01-01T05:00:05.189Z,1.75
2023-01-01T05:03:47.847Z,2.95
2023-01-01T05:07:29.891Z,2.97
2023-01-01T05:11:20.371Z,1.50
2023-01-01T05:15:02.367Z,6.30
2023-01-01T05:18:45.248Z,3.95
2023-01-01T05:22:27.259Z,9.60
2023-01-01T05:26:10.228Z,4.50
2023-01-01T05:29:52.211Z,7.38
2023-01-01T05:33:36.480Z,6.45
2023-01-01T05:37:18.483Z,11.00
2023-01-01T05:41:05.128Z,9.65
2023-01-01T05:44:47.148Z,10.05
2023-01-01T05:48:29.510Z,10.57
2023-01-01T05:52:11.461Z,12.80
2023-01-01T05:55:54.171Z,13.27
2023-01-01T05:59:37.182Z,12.82
2023-01-01T06:03:19.321Z,9.75
2023-01-01T06:07:01.296Z,6.72
2023-01-01T06:10:43.251Z,5.43
2023-01-01T06:14:25.251Z,5.30
2023-01-01T06:18:07.239Z,4.40
2023-01-01T06:21:49.190Z,5.35
2023-01-01T06:25:31.093Z,4.40
2023-01-01T06:29:13.073Z,4.75
2023-01-01T06:32:54.990Z,4.82
2023-01-01T06:36:37.097Z,8.00
2023-01-01T06:40:19.156Z,6.45
2023-01-01T06:44:02.285Z,4.70
2023-01-01T06:47:44.345Z,7.05
2023-01-01T06:51:31.840Z,5.30
2023-01-01T06:55:13.868Z,6.50
2023-01-01T06:58:56.541Z,7.53
2023-01-01T07:02:38.588Z,8.63
2023-01-01T07:06:20.829Z,5.50
2023-01-01T07:10:02.780Z,6.38
2023-01-01T07:13:45.081Z,7.55
2023-01-01T07:17:26.991Z,5.03
2023-01-01T07:21:36.435Z,6.32
2023-01-01T07:25:18.401Z,6.40
2023-01-01T07:29:08.597Z,4.22
2023-01-01T07:32:55.789Z,6.78
2023-01-01T07:36:38.426Z,4.60
2023-01-01T07:40:20.413Z,4.57
2023-01-01T07:44:02.439Z,4.90
2023-01-01T07:47:48.128Z,7.70
2023-01-01T07:51:30.166Z,8.07
2023-01-01T07:55:16.782Z,5.30
2023-01-01T07:58:58.767Z,6.45
2023-01-01T08:02:41.107Z,8.77
2023-01-01T08:06:23.146Z,6.85
2023-01-01T08:10:06.427Z,7.82
2023-01-01T08:13:48.462Z,8.15
2023-01-01T08:17:30.440Z,8.88
2023-01-01T08:21:12.414Z,11.35
2023-01-01T08:24:54.325Z,9.75
2023-01-01T08:28:36.461Z,9.93
2023-01-01T08:32:18.500Z,7.00
2023-01-01T08:36:01.022Z,9.25
2023-01-01T08:39:42.967Z,7.35
2023-01-01T08:43:24.956Z,11.57
2023-01-01T08:47:06.858Z,7.25
2023-01-01T08:50:55.965Z,7.47
2023-01-01T08:54:37.906Z,13.63
2023-01-01T08:58:19.850Z,12.05
2023-01-01T09:02:01.969Z,13.35
2023-01-01T09:05:45.930Z,11.93
2023-01-01T09:09:31.616Z,12.80
2023-01-01T09:13:15.893Z,13.27
2023-01-01T09:16:57.905Z,13.40
2023-01-01T09:20:40.342Z,11.13
2023-01-01T09:24:22.368Z,16.80
2023-01-01T09:28:07.181Z,16.00
2023-01-01T09:31:49.703Z,16.15
2023-01-01T09:35:32.142Z,12.75
2023-01-01T09:39:16.938Z,12.85
2023-01-01T09:43:19.094Z,15.43
2023-01-01T09:47:04.396Z,13.35
2023-01-01T09:50:46.826Z,16.92
2023-01-01T09:54:33.496Z,15.82
2023-01-01T09:58:15.985Z,11.93
2023-01-01T10:02:04.044Z,17.52
2023-01-01T10:06:13.009Z,14.70
2023-01-01T10:10:37.695Z,14.82
2023-01-01T10:14:35.686Z,20.00
2023-01-01T10:18:22.830Z,14.80
2023-01-01T10:22:11.558Z,19.33
2023-01-01T10:25:56.116Z,15.13
2023-01-01T10:29:45.897Z,22.95
2023-01-01T10:33:27.899Z,15.73
2023-01-01T10:37:11.399Z,13.50
2023-01-01T10:41:00.421Z,8.60
2023-01-01T10:44:43.601Z,11.35
2023-01-01T10:48:27.830Z,8.80
2023-01-01T10:52:15.501Z,8.50
2023-01-01T10:56:08.217Z,12.68
2023-01-01T10:59:54.462Z,5.93
2023-01-01T11:03:37.333Z,8.93
2023-01-01T11:07:19.319Z,10.45
2023-01-01T11:11:03.044Z,7.45
2023-01-01T11:14:51.194Z,10.90
2023-01-01T11:18:36.572Z,6.18
2023-01-01T11:22:53.881Z,6.55
2023-01-01T11:26:35.837Z,10.75
2023-01-01T11:30:22.127Z,11.85
2023-01-01T11:34:14.590Z,12.70
2023-01-01T11:37:57.937Z,7.25
2023-01-01T11:41:45.619Z,8.40
2023-01-01T11:45:37.741Z,7.00
2023-01-01T11:49:28.747Z,8.38
2023-01-01T11:53:22.901Z,10.63
2023-01-01T11:57:14.607Z,9.48
2023-01-01T12:01:01.121Z,9.13
2023-01-01T12:05:02.375Z,11.73
2023-01-01T12:08:55.234Z,11.80
2023-01-01T12:13:03.393Z,12.35
2023-01-01T12:17:25.894Z,12.80
2023-01-01T12:21:17.905Z,11.48
2023-01-01T12:25:00.516Z,13.93
2023-01-01T12:29:20.290Z,15.18
2023-01-01T12:33:20.620Z,14.73
2023-01-01T12:37:53.900Z,14.32
2023-01-01T12:41:40.100Z,11.00
2023-01-01T12:45:34.050Z,14.27
2023-01-01T12:49:27.756Z,14.20
2023-01-01T12:53:22.013Z,13.07
2023-01-01T12:57:32.991Z,13.73
2023-01-01T13:01:22.780Z,11.80
2023-01-01T13:05:27.680Z,11.90
2023-01-01T13:09:27.525Z,15.13
2023-01-01T13:13:12.796Z,14.05
2023-01-01T13:16:56.731Z,16.92
2023-01-01T13:20:41.965Z,18.63
2023-01-01T13:24:26.434Z,13.55
2023-01-01T13:28:13.042Z,13.05
2023-01-01T13:32:04.339Z,15.73
2023-01-01T13:35:46.354Z,15.13
2023-01-01T13:39:58.123Z,16.25
2023-01-01T13:43:40.111Z,18.88
2023-01-01T13:47:52.839Z,14.88
2023-01-01T13:52:07.879Z,16.75
2023-01-01T13:56:35.566Z,11.73
2023-01-01T14:00:30.812Z,14.70
2023-01-01T14:04:31.247Z,18.50
2023-01-01T14:08:36.590Z,15.90
2023-01-01T14:12:20.282Z,14.52
2023-01-01T14:16:07.411Z,13.35
2023-01-01T14:19:50.220Z,10.77
2023-01-01T14:23:37.891Z,13.43
2023-01-01T14:27:21.890Z,11.15
2023-01-01T14:31:11.416Z,15.77
2023-01-01T14:35:01.857Z,16.08
2023-01-01T14:38:46.563Z,17.60
2023-01-01T14:42:29.129Z,12.30
2023-01-01T14:46:16.924Z,13.27
2023-01-01T14:50:05.012Z,15.00
2023-01-01T14:53:49.149Z,10.95
2023-01-01T14:57:34.429Z,20.05
2023-01-01T15:01:22.122Z,18.88
2023-01-01T15:05:34.733Z,17.08
2023-01-01T15:09:17.371Z,14.15
2023-01-01T15:12:59.832Z,16.15
2023-01-01T15:16:41.873Z,15.55
2023-01-01T15:20:23.958Z,16.13
2023-01-01T15:24:12.231Z,14.13
2023-01-01T15:27:55.725Z,15.52
2023-01-01T15:31:43.212Z,15.57
2023-01-01T15:35:37.844Z,10.57
2023-01-01T15:39:21.003Z,9.52
2023-01-01T15:43:02.885Z,8.85
2023-01-01T15:46:51.682Z,8.80
2023-01-01T15:50:48.677Z,8.38
2023-01-01T15:54:32.931Z,6.43
2023-01-01T15:58:30.481Z,4.85
2023-01-01T16:02:22.029Z,7.63
2023-01-01T16:06:04.928Z,4.78
2023-01-01T16:09:53.451Z,5.57
2023-01-01T16:13:39.205Z,2.72
2023-01-01T16:17:21.554Z,6.15
2023-01-01T16:21:05.408Z,5.95
2023-01-01T16:24:47.703Z,4.20
2023-01-01T16:28:29.655Z,5.93
2023-01-01T16:32:18.531Z,6.28
2023-01-01T16:36:00.447Z,5.05
2023-01-01T16:39:42.412Z,6.32
2023-01-01T16:43:24.396Z,5.88
2023-01-01T16:47:06.375Z,8.27
2023-01-01T16:50:52.326Z,9.38
2023-01-01T16:54:35.171Z,4.97
2023-01-01T16:58:48.109Z,5.32
2023-01-01T17:02:19.169Z,8.98
2023-01-01T17:06:09.480Z,8.80
2023-01-01T17:09:51.458Z,9.02
2023-01-01T17:13:36.819Z,7.63
2023-01-01T17:17:18.784Z,8.73
2023-01-01T17:21:09.187Z,6.38
2023-01-01T17:24:51.158Z,9.15
2023-01-01T17:28:33.074Z,7.47
2023-01-01T17:32:15.811Z,7.28
2023-01-01T17:35:57.746Z,9.48
2023-01-01T17:39:39.725Z,6.05
2023-01-01T17:43:21.718Z,5.47
2023-01-01T17:47:03.664Z,5.90
2023-01-01T17:50:45.627Z,5.75
2023-01-01T17:54:27.736Z,6.97
2023-01-01T17:58:09.674Z,4.88
2023-01-01T18:01:51.713Z,5.35
2023-01-01T18:05:33.705Z,4.25
2023-01-01T18:09:17.086Z,7.38
2023-01-01T18:12:59.167Z,3.72
2023-01-01T18:16:43.945Z,7.22
2023-01-01T18:20:25.864Z,6.15
2023-01-01T18:24:12.910Z,9.02
2023-01-01T18:27:57.788Z,6.78
2023-01-01T18:31:40.120Z,8.32
2023-01-01T18:35:22.142Z,10.70
2023-01-01T18:39:17.734Z,8.48
2023-01-01T18:43:13.629Z,8.63
2023-01-01T18:46:59.385Z,8.35
2023-01-01T18:50:41.345Z,8.55
2023-01-01T18:54:24.797Z,6.43
2023-01-01T18:58:23.601Z,6.85
2023-01-01T19:02:41.340Z,5.60
2023-01-01T19:10:13.680Z,7.63
2023-01-01T19:14:04.761Z,11.75
2023-01-01T19:17:47.160Z,7.82
2023-01-01T19:21:29.214Z,4.72
2023-01-01T19:25:43.366Z,4.40
2023-01-01T19:29:28.603Z,6.35
2023-01-01T19:33:10.799Z,4.22
2023-01-01T19:36:52.867Z,5.63
2023-01-01T19:40:34.846Z,7.55
2023-01-01T19:44:22.966Z,5.75
2023-01-01T19:48:07.166Z,6.97
2023-01-01T19:51:49.503Z,7.18
2023-01-01T19:55:31.549Z,5.35
2023-01-01T19:59:13.478Z,6.30
2023-01-01T20:02:56.239Z,6.35
2023-01-01T20:06:38.335Z,4.75
2023-01-01T20:10:20.340Z,7.00
2023-01-01T20:14:03.536Z,10.52
2023-01-01T20:17:45.543Z,4.25
2023-01-01T20:21:45.856Z,4.85
2023-01-01T20:25:28.158Z,5.35
2023-01-01T20:29:19.253Z,7.88
2023-01-01T20:33:01.272Z,4.47
2023-01-01T20:37:01.763Z,6.70
2023-01-01T20:40:43.745Z,4.95
2023-01-01T20:44:26.021Z,6.22
2023-01-01T20:48:08.021Z,11.80
2023-01-01T20:51:52.072Z,8.00
2023-01-01T20:55:34.040Z,7.25
2023-01-01T21:03:17.984Z,5.10
2023-01-01T21:06:59.968Z,7.50
2023-01-01T21:10:43.844Z,5.28
2023-01-01T21:14:25.818Z,8.98
2023-01-01T21:18:11.701Z,6.05
2023-01-01T21:21:55.730Z,4.90
2023-01-01T21:25:50.910Z,4.70
2023-01-01T21:29:33.976Z,5.55
2023-01-01T21:33:27.071Z,6.35
2023-01-01T21:37:14.912Z,5.65
2023-01-01T21:40:58.766Z,4.22
2023-01-01T21:44:40.682Z,3.47
2023-01-01T21:48:36.027Z,9.13
2023-01-01T21:52:24.188Z,7.65
2023-01-01T21:56:28.369Z,12.70
2023-01-01T22:00:21.159Z,5.65
2023-01-01T22:04:09.623Z,7.60
2023-01-01T22:07:58.908Z,4.38
2023-01-01T22:11:41.110Z,5.90
2023-01-01T22:15:41.527Z,6.40
2023-01-01T22:19:24.801Z,9.27
2023-01-01T22:23:34.159Z,6.07
2023-01-01T22:27:16.160Z,4.03
2023-01-01T22:30:59.820Z,5.97
2023-01-01T22:34:41.861Z,4.28
2023-01-01T22:38:33.286Z,7.75
2023-01-01T22:42:20.018Z,7.32
2023-01-01T22:46:25.843Z,6.93
2023-01-01T22:50:15.832Z,4.47
2023-01-01T22:53:57.833Z,6.43
2023-01-01T22:57:39.877Z,4.22
2023-01-01T23:01:21.885Z,4.28
2023-01-01T23:05:04.499Z,3.28
2023-01-01T23:08:47.071Z,5.35
2023-01-01T23:12:29.111Z,4.50
2023-01-01T23:16:11.152Z,3.72
2023-01-01T23:19:53.647Z,6.10
2023-01-01T23:23:36.752Z,4.43
2023-01-01T23:27:18.987Z,4.05
2023-01-01T23:31:03.756Z,4.40
2023-01-01T23:34:46.615Z,6.05
2023-01-01T23:38:30.033Z,7.00
2023-01-01T23:42:12.015Z,4.90
2023-01-01T23:45:54.697Z,6.43
2023-01-01T23:49:37.030Z,4.78
2023-01-01T23:53:19.092Z,4.72
2023-01-01T23:57:01.107Z,4.07
